createdAt,value
2023-04-01T00:01:15.960Z,99141.00
2023-04-01T00:03:43.076Z,99134.88
2023-04-01T00:06:10.646Z,99135.81
2023-04-01T00:08:37.222Z,99132.22
2023-04-01T00:11:04.048Z,99142.91
2023-04-01T00:13:30.838Z,99141.22
2023-04-01T00:15:57.772Z,99150.06
2023-04-01T00:18:26.552Z,99147.50
2023-04-01T00:20:53.128Z,99141.38
2023-04-01T00:23:19.931Z,99134.41
2023-04-01T00:25:47.862Z,99132.59
2023-04-01T00:28:16.036Z,99129.12
2023-04-01T00:30:42.620Z,99127.41
2023-04-01T00:33:09.293Z,99128.34
2023-04-01T00:35:36.430Z,99130.97
2023-04-01T00:38:06.423Z,99128.44
2023-04-01T00:40:37.931Z,99120.59
2023-04-01T00:43:05.041Z,99111.72
2023-04-01T00:45:37.013Z,99121.53
2023-04-01T00:48:07.310Z,99118.88
2023-04-01T00:50:34.701Z,99119.84
2023-04-01T00:53:02.635Z,99121.62
2023-04-01T00:55:30.655Z,99114.53
2023-04-01T00:57:57.992Z,99115.50
2023-04-01T01:00:24.726Z,99116.44
2023-04-01T01:02:51.376Z,99111.16
2023-04-01T01:05:18.138Z,99106.81
2023-04-01T01:07:57.034Z,99108.59
2023-04-01T01:10:35.921Z,99110.31
2023-04-01T01:13:27.013Z,99108.50
2023-04-01T01:15:59.365Z,99103.22
2023-04-01T01:18:40.353Z,99109.34
2023-04-01T01:21:43.613Z,99107.56
2023-04-01T01:24:29.131Z,99111.06
2023-04-01T01:27:14.897Z,99102.28
2023-04-01T01:29:43.234Z,99103.13
2023-04-01T01:32:19.034Z,99105.03
2023-04-01T01:34:45.902Z,99102.28
2023-04-01T01:37:16.194Z,99098.78
2023-04-01T01:39:44.036Z,99102.28
2023-04-01T01:42:12.150Z,99100.59
2023-04-01T01:44:38.762Z,99098.78
2023-04-01T01:47:05.478Z,99097.09
2023-04-01T01:49:32.795Z,99104.06
2023-04-01T01:51:59.406Z,99099.72
2023-04-01T01:54:25.991Z,99094.44
2023-04-01T01:57:06.195Z,99092.66
2023-04-01T01:59:32.926Z,99098.88
2023-04-01T02:02:00.561Z,99102.44
2023-04-01T02:04:28.075Z,99104.25
2023-04-01T02:06:59.140Z,99097.16
2023-04-01T02:09:25.720Z,99094.63
2023-04-01T02:11:58.420Z,99094.63
2023-04-01T02:14:26.579Z,99095.47
2023-04-01T02:17:07.220Z,99091.12
2023-04-01T02:19:36.170Z,99090.28
2023-04-01T02:22:04.037Z,99091.97
2023-04-01T02:24:31.884Z,99092.09
2023-04-01T02:26:58.484Z,99085.00
2023-04-01T02:29:26.394Z,99080.66
2023-04-01T02:31:53.132Z,99083.31
2023-04-01T02:34:20.953Z,99076.28
2023-04-01T02:36:50.786Z,99073.66
2023-04-01T02:39:17.522Z,99071.00
2023-04-01T02:41:45.007Z,99078.03
2023-04-01T02:44:14.684Z,99076.28
2023-04-01T02:46:41.346Z,99065.72
2023-04-01T02:49:08.076Z,99071.00
2023-04-01T02:51:34.872Z,99072.81
2023-04-01T02:54:01.582Z,99070.16
2023-04-01T02:56:28.154Z,99078.09
2023-04-01T02:58:55.969Z,99078.19
2023-04-01T03:01:22.843Z,99083.47
2023-04-01T03:03:49.471Z,99083.47
2023-04-01T03:06:16.414Z,99080.84
2023-04-01T03:08:43.185Z,99073.84
2023-04-01T03:11:11.025Z,99078.37
2023-04-01T03:13:37.694Z,99078.37
2023-04-01T03:16:04.646Z,99088.94
2023-04-01T03:18:31.271Z,99076.66
2023-04-01T03:20:57.926Z,99067.91
2023-04-01T03:23:25.343Z,99056.47
2023-04-01T03:25:52.060Z,99073.28
2023-04-01T03:28:18.740Z,99075.94
2023-04-01T03:30:45.437Z,99081.22
2023-04-01T03:33:12.810Z,99083.84
2023-04-01T03:35:39.437Z,99093.66
2023-04-01T03:38:06.112Z,99093.66
2023-04-01T03:40:34.047Z,99097.22
2023-04-01T03:43:00.895Z,99089.31
2023-04-01T03:45:27.636Z,99093.75
2023-04-01T03:47:54.786Z,99098.19
2023-04-01T03:50:21.402Z,99101.78
2023-04-01T03:52:48.043Z,99101.84
2023-04-01T03:55:14.631Z,99109.69
2023-04-01T03:57:41.306Z,99108.84
2023-04-01T04:00:09.944Z,99110.63
2023-04-01T04:02:36.731Z,99107.97
2023-04-01T04:05:03.527Z,99111.56
2023-04-01T04:07:30.178Z,99115.16
2023-04-01T04:09:56.780Z,99109.03
2023-04-01T04:12:23.402Z,99109.87
2023-04-01T04:14:49.971Z,99117.78
2023-04-01T04:17:17.404Z,99112.59
2023-04-01T04:19:44.099Z,99120.53
2023-04-01T04:22:10.784Z,99115.25
2023-04-01T04:24:37.584Z,99101.22
2023-04-01T04:27:04.497Z,99112.69
2023-04-01T04:29:31.138Z,99110.03
2023-04-01T04:31:57.813Z,99114.44
2023-04-01T04:34:24.643Z,99117.09
2023-04-01T04:36:51.252Z,99111.78
2023-04-01T04:39:18.200Z,99108.31
2023-04-01T04:41:44.827Z,99102.19
2023-04-01T04:44:11.521Z,99096.03
2023-04-01T04:46:40.302Z,99103.03
2023-04-01T04:49:07.693Z,99103.97
2023-04-01T04:51:37.007Z,99100.56
2023-04-01T04:54:04.277Z,99099.69
2023-04-01T04:56:31.781Z,99106.72
2023-04-01T04:58:58.653Z,99100.47
2023-04-01T05:01:25.669Z,99099.41
2023-04-01T05:03:52.688Z,99102.25
2023-04-01T05:06:20.988Z,99102.16
2023-04-01T05:08:48.880Z,99108.25
2023-04-01T05:11:19.314Z,99105.62
2023-04-01T05:13:45.979Z,99103.16
2023-04-01T05:16:18.036Z,99101.47
2023-04-01T05:18:44.826Z,99098.44
2023-04-01T05:21:12.110Z,99101.03
2023-04-01T05:23:38.730Z,99105.03
2023-04-01T05:26:12.867Z,99100.44
2023-04-01T05:28:39.521Z,99107.53
2023-04-01T05:31:06.421Z,99113.06
2023-04-01T05:33:33.226Z,99111.59
2023-04-01T05:36:16.135Z,99105.78
2023-04-01T05:38:44.124Z,99109.81
2023-04-01T05:41:10.921Z,99110.25
2023-04-01T05:43:37.981Z,99114.28
2023-04-01T05:46:04.590Z,99113.84
2023-04-01T05:48:31.210Z,99112.69
2023-04-01T05:50:57.881Z,99107.09
2023-04-01T05:53:24.500Z,99107.63
2023-04-01T05:55:51.126Z,99106.44
2023-04-01T05:58:17.694Z,99107.13
2023-04-01T06:00:44.475Z,99105.97
2023-04-01T06:03:11.226Z,99103.94
2023-04-01T06:05:43.531Z,99110.84
2023-04-01T06:08:17.629Z,99104.38
2023-04-01T06:10:51.922Z,99112.09
2023-04-01T06:13:34.110Z,99115.31
2023-04-01T06:16:22.629Z,99112.41
2023-04-01T06:19:00.353Z,99117.53
2023-04-01T06:21:52.678Z,99100.50
2023-04-01T06:24:37.532Z,99108.28
2023-04-01T06:27:19.763Z,99107.31
2023-04-01T06:29:51.805Z,99105.41
2023-04-01T06:32:36.940Z,99095.63
2023-04-01T06:35:37.663Z,99113.25
2023-04-01T06:38:26.085Z,99118.44
2023-04-01T06:41:16.025Z,99118.34
2023-04-01T06:44:01.038Z,99117.41
2023-04-01T06:46:39.208Z,99115.47
2023-04-01T06:49:15.114Z,99122.59
2023-04-01T06:51:44.539Z,99116.22
2023-04-01T06:54:17.931Z,99119.59
2023-04-01T06:56:47.454Z,99126.50
2023-04-01T06:59:23.285Z,99128.22
2023-04-01T07:01:55.102Z,99128.09
2023-04-01T07:04:22.099Z,99125.34
2023-04-01T07:06:57.173Z,99133.19
2023-04-01T07:09:26.736Z,99126.06
2023-04-01T07:11:54.713Z,99125.94
2023-04-01T07:14:27.111Z,99131.06
2023-04-01T07:17:07.722Z,99132.63
2023-04-01T07:19:42.341Z,99120.22
2023-04-01T07:22:21.194Z,99120.09
2023-04-01T07:24:47.796Z,99121.69
2023-04-01T07:27:14.601Z,99123.41
2023-04-01T07:29:41.454Z,99121.47
2023-04-01T07:32:26.926Z,99115.97
2023-04-01T07:35:23.852Z,99119.34
2023-04-01T07:38:22.081Z,99123.63
2023-04-01T07:41:00.867Z,99126.88
2023-04-01T07:43:37.952Z,99126.66
2023-04-01T07:46:27.599Z,99130.06
2023-04-01T07:48:56.987Z,99132.47
2023-04-01T07:51:41.710Z,99128.88
2023-04-01T07:54:30.990Z,99133.13
2023-04-01T07:57:13.379Z,99128.66
2023-04-01T07:59:43.000Z,99132.91
2023-04-01T08:02:34.439Z,99129.16
2023-04-01T08:05:03.916Z,99133.50
2023-04-01T08:08:01.730Z,99137.75
2023-04-01T08:10:35.935Z,99128.59
2023-04-01T08:13:17.114Z,99138.16
2023-04-01T08:16:04.498Z,99138.06
2023-04-01T08:18:47.856Z,99139.63
2023-04-01T08:21:29.759Z,99136.75
2023-04-01T08:24:00.349Z,99136.62
2023-04-01T08:26:37.235Z,99138.31
2023-04-01T08:29:11.700Z,99128.53
2023-04-01T08:31:44.461Z,99139.91
2023-04-01T08:34:20.620Z,99137.13
2023-04-01T08:36:51.180Z,99137.88
2023-04-01T08:39:33.042Z,99138.72
2023-04-01T08:42:18.602Z,99130.75
2023-04-01T08:45:01.124Z,99127.84
2023-04-01T08:47:51.477Z,99133.91
2023-04-01T08:50:25.350Z,99126.66
2023-04-01T08:53:07.256Z,99132.81
2023-04-01T08:55:45.964Z,99132.75
2023-04-01T08:58:34.840Z,99135.28
2023-04-01T09:01:15.461Z,99142.16
2023-04-01T09:03:48.558Z,99140.37
2023-04-01T09:06:26.095Z,99137.81
2023-04-01T09:08:55.330Z,99146.03
2023-04-01T09:11:59.155Z,99143.09
2023-04-01T09:14:34.848Z,99135.56
2023-04-01T09:17:22.709Z,99137.72
2023-04-01T09:20:06.758Z,99134.53
2023-04-01T09:22:52.608Z,99136.66
2023-04-01T09:25:50.610Z,99126.38
2023-04-01T09:28:29.008Z,99138.22
2023-04-01T09:31:37.800Z,99134.19
2023-04-01T09:34:13.573Z,99129.31
2023-04-01T09:36:45.046Z,99124.53
2023-04-01T09:39:24.443Z,99127.62
2023-04-01T09:42:18.683Z,99129.75
2023-04-01T09:45:01.656Z,99137.22
2023-04-01T09:48:01.725Z,99131.50
2023-04-01T09:50:33.589Z,99149.44
2023-04-01T09:53:04.955Z,99148.09
2023-04-01T09:56:10.433Z,99141.28
2023-04-01T09:59:00.538Z,99157.53
2023-04-01T10:02:04.601Z,99158.59
2023-04-01T10:05:08.689Z,99154.44
2023-04-01T10:07:44.126Z,99152.97
2023-04-01T10:10:31.856Z,99156.81
2023-04-01T10:13:13.607Z,99160.63
2023-04-01T10:15:58.415Z,99152.97
2023-04-01T10:18:53.996Z,99155.94
2023-04-01T10:21:45.536Z,99149.03
2023-04-01T10:24:27.811Z,99159.75
2023-04-01T10:27:04.524Z,99152.97
2023-04-01T10:29:56.077Z,99153.19
2023-04-01T10:32:36.415Z,99155.03
2023-04-01T10:35:48.229Z,99151.66
2023-04-01T10:38:28.171Z,99155.47
2023-04-01T10:41:19.234Z,99158.31
2023-04-01T10:43:51.762Z,99154.19
2023-04-01T10:46:27.292Z,99166.69
2023-04-01T10:48:59.791Z,99156.28
2023-04-01T10:51:51.049Z,99151.28
2023-04-01T10:54:32.848Z,99150.56
2023-04-01T10:57:34.990Z,99155.97
2023-04-01T11:00:20.854Z,99145.47
2023-04-01T11:03:19.559Z,99142.06
2023-04-01T11:05:52.265Z,99142.19
2023-04-01T11:08:31.084Z,99150.22
2023-04-01T11:11:00.219Z,99147.78
2023-04-01T11:13:45.936Z,99142.56
2023-04-01T11:16:36.998Z,99142.81
2023-04-01T11:19:21.481Z,99134.94
2023-04-01T11:22:15.500Z,99136.72
2023-04-01T11:25:01.314Z,99136.72
2023-04-01T11:27:49.742Z,99137.81
2023-04-01T11:30:47.398Z,99123.72
2023-04-01T11:33:27.537Z,99142.25
2023-04-01T11:36:16.364Z,99125.69
2023-04-01T11:39:11.521Z,99141.69
2023-04-01T11:41:49.426Z,99140.94
2023-04-01T11:44:29.876Z,99143.72
2023-04-01T11:47:05.082Z,99156.13
2023-04-01T11:50:10.149Z,99165.09
2023-04-01T11:53:02.045Z,99161.72
2023-04-01T11:55:50.564Z,99168.06
2023-04-01T11:58:36.377Z,99155.00
2023-04-01T12:01:12.242Z,99159.44
2023-04-01T12:03:43.467Z,99152.56
2023-04-01T12:06:32.039Z,99155.31
2023-04-01T12:09:46.778Z,99150.09
2023-04-01T12:12:19.317Z,99151.06
2023-04-01T12:15:12.010Z,99149.38
2023-04-01T12:17:52.325Z,99157.41
2023-04-01T12:20:25.055Z,99151.25
2023-04-01T12:23:24.117Z,99152.31
2023-04-01T12:26:05.654Z,99145.34
2023-04-01T12:28:50.516Z,99151.56
2023-04-01T12:31:28.489Z,99152.41
2023-04-01T12:33:58.099Z,99144.53
2023-04-01T12:36:51.386Z,99153.44
2023-04-01T12:39:51.889Z,99149.84
2023-04-01T12:42:40.212Z,99149.09
2023-04-01T12:45:24.674Z,99152.59
2023-04-01T12:48:00.523Z,99154.47
2023-04-01T12:50:32.780Z,99147.47
2023-04-01T12:53:11.448Z,99147.47
2023-04-01T12:55:53.476Z,99143.88
2023-04-01T12:58:42.047Z,99138.69
2023-04-01T13:01:18.968Z,99141.34
2023-04-01T13:04:06.850Z,99134.41
2023-04-01T13:06:37.840Z,99140.50
2023-04-01T13:09:07.529Z,99133.50
2023-04-01T13:11:48.951Z,99134.41
2023-04-01T13:14:29.100Z,99127.44
2023-04-01T13:16:58.437Z,99123.94
2023-04-01T13:20:01.946Z,99128.38
2023-04-01T13:22:58.346Z,99131.03
2023-04-01T13:25:31.190Z,99130.19
2023-04-01T13:28:01.329Z,99132.00
2023-04-01T13:30:32.072Z,99139.09
2023-04-01T13:33:17.061Z,99132.94
2023-04-01T13:36:04.457Z,99131.22
2023-04-01T13:38:43.170Z,99133.88
2023-04-01T13:41:31.477Z,99138.31
2023-04-01T13:44:17.235Z,99144.56
2023-04-01T13:47:04.081Z,99149.03
2023-04-01T13:49:53.732Z,99142.88
2023-04-01T13:52:58.032Z,99145.53
2023-04-01T13:55:36.898Z,99145.63
2023-04-01T13:58:13.658Z,99148.37
2023-04-01T14:01:03.907Z,99151.00
2023-04-01T14:03:52.029Z,99145.81
2023-04-01T14:06:24.524Z,99152.94
2023-04-01T14:08:57.211Z,99154.72
2023-04-01T14:11:23.708Z,99164.56
2023-04-01T14:13:50.149Z,99156.72
2023-04-01T14:16:29.093Z,99157.56
2023-04-01T14:19:07.609Z,99158.50
2023-04-01T14:21:52.883Z,99148.94
2023-04-01T14:24:24.825Z,99148.09
2023-04-01T14:27:12.792Z,99156.16
2023-04-01T14:29:54.676Z,99153.50
2023-04-01T14:32:35.080Z,99152.66
2023-04-01T14:35:23.500Z,99148.41
2023-04-01T14:38:04.137Z,99148.41
2023-04-01T14:40:52.466Z,99151.16
2023-04-01T14:43:23.668Z,99145.00
2023-04-01T14:46:35.374Z,99147.72
2023-04-01T14:49:32.921Z,99144.25
2023-04-01T14:52:25.327Z,99139.91
2023-04-01T14:54:51.989Z,99141.69
2023-04-01T14:57:32.011Z,99139.16
2023-04-01T15:00:14.162Z,99142.66
2023-04-01T15:03:00.926Z,99143.50
2023-04-01T15:05:46.668Z,99144.47
2023-04-01T15:08:17.419Z,99143.59
2023-04-01T15:10:56.087Z,99142.84
2023-04-01T15:13:45.700Z,99143.78
2023-04-01T15:16:27.308Z,99139.34
2023-04-01T15:19:10.305Z,99138.50
2023-04-01T15:21:52.466Z,99143.78
2023-04-01T15:24:55.688Z,99148.34
2023-04-01T15:27:43.181Z,99147.47
2023-04-01T15:30:35.640Z,99157.22
2023-04-01T15:33:31.361Z,99161.78
2023-04-01T15:36:35.755Z,99151.06
2023-04-01T15:39:20.644Z,99158.16
2023-04-01T15:42:21.574Z,99152.97
2023-04-01T15:44:54.105Z,99158.28
2023-04-01T15:47:26.917Z,99158.28
2023-04-01T15:50:18.645Z,99156.66
2023-04-01T15:53:10.966Z,99160.16
2023-04-01T15:55:46.360Z,99164.59
2023-04-01T15:58:25.408Z,99168.19
2023-04-01T16:00:58.875Z,99173.50
2023-04-01T16:03:31.744Z,99164.69
2023-04-01T16:06:07.661Z,99170.94
2023-04-01T16:08:59.683Z,99171.78
2023-04-01T16:11:44.156Z,99179.75
2023-04-01T16:14:30.993Z,99173.59
2023-04-01T16:17:12.517Z,99171.88
2023-04-01T16:19:57.281Z,99179.91
2023-04-01T16:22:45.747Z,99192.31
2023-04-01T16:25:18.796Z,99188.81
2023-04-01T16:28:17.542Z,99195.06
2023-04-01T16:30:49.270Z,99184.47
2023-04-01T16:33:46.840Z,99190.72
2023-04-01T16:36:31.834Z,99189.84
2023-04-01T16:39:47.599Z,99190.88
2023-04-01T16:42:39.498Z,99193.53
2023-04-01T16:45:08.932Z,99193.53
2023-04-01T16:47:55.687Z,99202.44
2023-04-01T16:50:24.445Z,99201.66
2023-04-01T16:53:02.046Z,99202.59
2023-04-01T16:56:02.438Z,99209.59
2023-04-01T16:58:33.800Z,99205.25
2023-04-01T17:01:07.092Z,99206.19
2023-04-01T17:03:39.296Z,99207.16
2023-04-01T17:06:41.440Z,99208.94
2023-04-01T17:09:16.624Z,99207.22
2023-04-01T17:12:01.643Z,99223.22
2023-04-01T17:14:30.321Z,99213.47
2023-04-01T17:17:11.357Z,99218.88
2023-04-01T17:20:04.568Z,99210.09
2023-04-01T17:22:35.466Z,99219.88
2023-04-01T17:25:17.565Z,99216.41
2023-04-01T17:28:10.897Z,99221.69
2023-04-01T17:30:47.038Z,99223.59
2023-04-01T17:33:20.600Z,99226.25
2023-04-01T17:36:08.395Z,99234.25
2023-04-01T17:39:12.795Z,99238.78
2023-04-01T17:41:48.437Z,99245.87
2023-04-01T17:44:27.173Z,99243.25
2023-04-01T17:46:59.716Z,99244.16
2023-04-01T17:49:42.445Z,99242.38
2023-04-01T17:52:31.516Z,99249.53
2023-04-01T17:55:16.884Z,99246.97
2023-04-01T17:57:53.261Z,99253.22
2023-04-01T18:00:50.635Z,99250.56
2023-04-01T18:03:57.553Z,99262.09
2023-04-01T18:06:46.098Z,99267.41
2023-04-01T18:09:25.146Z,99270.09
2023-04-01T18:11:57.585Z,99271.91
2023-04-01T18:14:39.425Z,99278.16
2023-04-01T18:17:26.349Z,99278.16
2023-04-01T18:20:27.789Z,99284.37
2023-04-01T18:23:36.201Z,99280.91
2023-04-01T18:26:13.498Z,99293.25
2023-04-01T18:28:45.225Z,99295.13
2023-04-01T18:31:41.119Z,99290.69
2023-04-01T18:34:11.575Z,99288.16
2023-04-01T18:36:45.908Z,99301.38
2023-04-01T18:39:20.123Z,99301.38
2023-04-01T18:42:00.428Z,99310.25
2023-04-01T18:44:48.767Z,99312.91
2023-04-01T18:47:23.473Z,99309.38
2023-04-01T18:50:22.318Z,99305.88
2023-04-01T18:52:51.322Z,99319.97
2023-04-01T18:55:36.280Z,99317.41
2023-04-01T18:58:20.003Z,99316.47
2023-04-01T19:01:02.328Z,99326.31
2023-04-01T19:03:41.363Z,99322.81
2023-04-01T19:06:21.451Z,99321.97
2023-04-01T19:08:48.210Z,99323.66
2023-04-01T19:11:20.877Z,99322.03
2023-04-01T19:14:17.142Z,99326.47
2023-04-01T19:17:03.248Z,99318.53
2023-04-01T19:19:53.878Z,99319.47
2023-04-01T19:23:03.505Z,99329.22
2023-04-01T19:25:51.103Z,99323.06
2023-04-01T19:28:22.068Z,99331.00
2023-04-01T19:31:02.898Z,99333.75
2023-04-01T19:33:32.771Z,99325.88
2023-04-01T19:36:21.308Z,99330.31
2023-04-01T19:38:56.364Z,99336.47
2023-04-01T19:41:26.377Z,99332.97
2023-04-01T19:44:00.503Z,99342.69
2023-04-01T19:46:30.671Z,99346.28
2023-04-01T19:49:25.607Z,99351.56
2023-04-01T19:51:52.540Z,99348.09
2023-04-01T19:55:03.918Z,99345.50
2023-04-01T19:58:02.005Z,99355.22
2023-04-01T20:00:38.897Z,99346.44
2023-04-01T20:03:30.248Z,99351.75
2023-04-01T20:05:59.480Z,99345.69
2023-04-01T20:08:35.054Z,99355.44
2023-04-01T20:11:07.433Z,99358.94
2023-04-01T20:13:37.313Z,99353.69
2023-04-01T20:16:06.156Z,99355.50
2023-04-01T20:18:41.107Z,99352.00
2023-04-01T20:21:19.385Z,99357.28
2023-04-01T20:23:58.031Z,99352.00
2023-04-01T20:26:27.781Z,99353.81
2023-04-01T20:29:31.708Z,99346.91
2023-04-01T20:32:24.346Z,99351.25
2023-04-01T20:35:06.983Z,99354.84
2023-04-01T20:37:48.293Z,99350.47
2023-04-01T20:40:34.494Z,99356.59
2023-04-01T20:43:34.811Z,99354.91
2023-04-01T20:46:40.954Z,99359.44
2023-04-01T20:49:40.174Z,99361.31
2023-04-01T20:52:15.702Z,99363.88
2023-04-01T20:55:04.129Z,99367.44
2023-04-01T20:57:39.588Z,99373.69
2023-04-01T21:01:03.141Z,99372.81
2023-04-01T21:04:07.790Z,99386.03
2023-04-01T21:06:54.603Z,99379.06
2023-04-01T21:09:36.321Z,99381.81
2023-04-01T21:12:15.370Z,99376.50
2023-04-01T21:15:19.827Z,99387.09
2023-04-01T21:18:15.578Z,99383.56
2023-04-01T21:21:13.222Z,99386.22
2023-04-01T21:24:01.152Z,99387.16
2023-04-01T21:27:12.708Z,99389.88
2023-04-01T21:29:39.173Z,99395.19
2023-04-01T21:32:21.126Z,99397.81
2023-04-01T21:34:56.475Z,99396.97
2023-04-01T21:37:41.822Z,99394.31
2023-04-01T21:40:33.519Z,99403.22
2023-04-01T21:43:25.828Z,99404.91
2023-04-01T21:45:55.316Z,99395.34
2023-04-01T21:48:35.868Z,99405.91
2023-04-01T21:51:47.033Z,99410.34
2023-04-01T21:54:34.704Z,99412.03
2023-04-01T21:57:23.045Z,99407.72
2023-04-01T22:00:12.466Z,99407.72
2023-04-01T22:03:00.812Z,99409.50
2023-04-01T22:05:46.008Z,99411.38
2023-04-01T22:08:53.127Z,99410.53
2023-04-01T22:11:33.578Z,99419.38
2023-04-01T22:14:04.301Z,99419.38
2023-04-01T22:16:38.328Z,99418.53
2023-04-01T22:19:35.958Z,99416.75
2023-04-01T22:22:09.155Z,99417.69
2023-04-01T22:24:54.997Z,99421.19
2023-04-01T22:27:42.740Z,99429.19
2023-04-01T22:30:12.479Z,99431.75
2023-04-01T22:32:43.787Z,99429.19
2023-04-01T22:35:25.948Z,99425.72
2023-04-01T22:37:58.515Z,99429.28
2023-04-01T22:40:34.800Z,99422.22
2023-04-01T22:43:10.124Z,99427.56
2023-04-01T22:46:12.225Z,99440.78
2023-04-01T22:48:48.663Z,99443.41
2023-04-01T22:51:27.489Z,99451.34
2023-04-01T22:54:17.368Z,99447.00
2023-04-01T22:56:57.663Z,99454.94
2023-04-01T22:59:40.707Z,99456.72
2023-04-01T23:02:14.950Z,99460.31
2023-04-01T23:04:43.588Z,99457.69
2023-04-01T23:07:33.246Z,99461.25
2023-04-01T23:09:59.865Z,99456.81
2023-04-01T23:12:26.711Z,99459.53
2023-04-01T23:14:57.888Z,99469.25
2023-04-01T23:17:43.667Z,99468.34
2023-04-01T23:20:51.912Z,99471.03
2023-04-01T23:23:30.848Z,99470.19
2023-04-01T23:26:08.969Z,99465.75
2023-04-01T23:28:51.122Z,99482.47
2023-04-01T23:31:39.634Z,99480.75
2023-04-01T23:34:12.272Z,99483.50
2023-04-01T23:36:41.255Z,99473.78
2023-04-01T23:39:32.592Z,99478.22
2023-04-01T23:42:18.902Z,99470.28
2023-04-01T23:44:45.541Z,99470.34
2023-04-01T23:47:19.462Z,99472.12
2023-04-01T23:49:49.103Z,99480.91
2023-04-01T23:52:30.935Z,99485.34
2023-04-01T23:55:02.710Z,99499.50
2023-04-01T23:57:33.988Z,99506.69
